sensor_id;sensor_type;location;lat;lon;timestamp;P1;durP1;ratioP1;P2;durP2;ratioP2
55222;SDS011;41090;48.632;12.428;2022-12-18T00:00:56;56.13;;;33.37;;
55222;SDS011;41090;48.632;12.428;2022-12-18T00:03:21;59.50;;;33.70;;
55222;SDS011;41090;48.632;12.428;2022-12-18T00:05:49;56.77;;;33.77;;
55222;SDS011;41090;48.632;12.428;2022-12-18T00:08:15;59.10;;;33.77;;
55222;SDS011;41090;48.632;12.428;2022-12-18T00:10:51;53.73;;;33.23;;
55222;SDS011;41090;48.632;12.428;2022-12-18T00:13:16;54.37;;;32.63;;
55222;SDS011;41090;48.632;12.428;2022-12-18T00:15:41;51.90;;;32.03;;
55222;SDS011;41090;48.632;12.428;2022-12-18T00:18:07;50.83;;;31.50;;
55222;SDS011;41090;48.632;12.428;2022-12-18T00:20:37;55.10;;;32.97;;
55222;SDS011;41090;48.632;12.428;2022-12-18T00:23:03;52.23;;;30.53;;
55222;SDS011;41090;48.632;12.428;2022-12-18T00:27:57;45.77;;;27.83;;
55222;SDS011;41090;48.632;12.428;2022-12-18T00:30:23;46.80;;;28.47;;
55222;SDS011;41090;48.632;12.428;2022-12-18T00:32:48;45.90;;;26.70;;
55222;SDS011;41090;48.632;12.428;2022-12-18T00:35:14;46.07;;;27.83;;
55222;SDS011;41090;48.632;12.428;2022-12-18T00:37:40;47.60;;;28.77;;
55222;SDS011;41090;48.632;12.428;2022-12-18T00:40:05;48.10;;;29.47;;
55222;SDS011;41090;48.632;12.428;2022-12-18T00:42:36;57.93;;;31.70;;
55222;SDS011;41090;48.632;12.428;2022-12-18T00:45:20;55.17;;;30.83;;
55222;SDS011;41090;48.632;12.428;2022-12-18T00:47:45;53.27;;;31.67;;
55222;SDS011;41090;48.632;12.428;2022-12-18T00:50:10;51.47;;;30.87;;
55222;SDS011;41090;48.632;12.428;2022-12-18T00:52:36;54.40;;;31.50;;
55222;SDS011;41090;48.632;12.428;2022-12-18T00:55:02;51.67;;;30.47;;
55222;SDS011;41090;48.632;12.428;2022-12-18T00:57:27;54.87;;;31.93;;
55222;SDS011;41090;48.632;12.428;2022-12-18T01:00:07;59.33;;;31.37;;
55222;SDS011;41090;48.632;12.428;2022-12-18T01:02:33;46.50;;;27.63;;
55222;SDS011;41090;48.632;12.428;2022-12-18T01:04:58;46.63;;;28.23;;
55222;SDS011;41090;48.632;12.428;2022-12-18T01:07:23;50.50;;;28.97;;
55222;SDS011;41090;48.632;12.428;2022-12-18T01:09:48;50.43;;;29.97;;
55222;SDS011;41090;48.632;12.428;2022-12-18T01:12:14;52.33;;;30.83;;
55222;SDS011;41090;48.632;12.428;2022-12-18T01:14:39;51.37;;;29.23;;
55222;SDS011;41090;48.632;12.428;2022-12-18T01:17:16;50.50;;;30.43;;
55222;SDS011;41090;48.632;12.428;2022-12-18T01:19:41;51.57;;;30.13;;
55222;SDS011;41090;48.632;12.428;2022-12-18T01:22:07;54.13;;;30.63;;
55222;SDS011;41090;48.632;12.428;2022-12-18T01:24:34;47.17;;;28.10;;
55222;SDS011;41090;48.632;12.428;2022-12-18T01:26:59;46.17;;;28.10;;
55222;SDS011;41090;48.632;12.428;2022-12-18T01:29:24;44.47;;;26.57;;
55222;SDS011;41090;48.632;12.428;2022-12-18T01:31:54;48.03;;;29.77;;
55222;SDS011;41090;48.632;12.428;2022-12-18T01:34:19;46.27;;;27.70;;
55222;SDS011;41090;48.632;12.428;2022-12-18T01:39:21;47.50;;;28.60;;
55222;SDS011;41090;48.632;12.428;2022-12-18T01:41:46;45.13;;;28.67;;
55222;SDS011;41090;48.632;12.428;2022-12-18T01:47:26;46.00;;;27.90;;
55222;SDS011;41090;48.632;12.428;2022-12-18T01:49:53;45.20;;;29.13;;
55222;SDS011;41090;48.632;12.428;2022-12-18T01:52:19;48.90;;;29.57;;
55222;SDS011;41090;48.632;12.428;2022-12-18T01:54:45;47.80;;;28.10;;
55222;SDS011;41090;48.632;12.428;2022-12-18T01:57:22;47.13;;;28.23;;
55222;SDS011;41090;48.632;12.428;2022-12-18T01:59:52;47.13;;;27.77;;
55222;SDS011;41090;48.632;12.428;2022-12-18T02:02:17;46.60;;;27.53;;
55222;SDS011;41090;48.632;12.428;2022-12-18T02:04:43;45.10;;;28.00;;
55222;SDS011;41090;48.632;12.428;2022-12-18T02:10:00;47.10;;;28.73;;
55222;SDS011;41090;48.632;12.428;2022-12-18T02:12:48;46.23;;;25.60;;
55222;SDS011;41090;48.632;12.428;2022-12-18T02:15:16;42.50;;;26.20;;
55222;SDS011;41090;48.632;12.428;2022-12-18T02:17:51;42.47;;;25.77;;
55222;SDS011;41090;48.632;12.428;2022-12-18T02:27:58;43.53;;;25.87;;
55222;SDS011;41090;48.632;12.428;2022-12-18T02:30:25;45.73;;;26.03;;
55222;SDS011;41090;48.632;12.428;2022-12-18T02:32:52;44.77;;;26.63;;
55222;SDS011;41090;48.632;12.428;2022-12-18T02:35:22;44.60;;;26.80;;
55222;SDS011;41090;48.632;12.428;2022-12-18T02:37:48;44.90;;;26.97;;
55222;SDS011;41090;48.632;12.428;2022-12-18T02:40:14;46.20;;;26.93;;
55222;SDS011;41090;48.632;12.428;2022-12-18T02:42:40;43.97;;;26.53;;
55222;SDS011;41090;48.632;12.428;2022-12-18T02:45:06;45.33;;;27.40;;
55222;SDS011;41090;48.632;12.428;2022-12-18T02:47:39;46.27;;;27.50;;
55222;SDS011;41090;48.632;12.428;2022-12-18T02:55:28;47.13;;;27.70;;
55222;SDS011;41090;48.632;12.428;2022-12-18T02:57:55;43.80;;;27.00;;
55222;SDS011;41090;48.632;12.428;2022-12-18T03:00:22;44.53;;;26.43;;
55222;SDS011;41090;48.632;12.428;2022-12-18T03:02:52;44.40;;;26.73;;
55222;SDS011;41090;48.632;12.428;2022-12-18T03:07:46;45.07;;;28.07;;
55222;SDS011;41090;48.632;12.428;2022-12-18T03:10:14;44.90;;;26.63;;
55222;SDS011;41090;48.632;12.428;2022-12-18T03:12:46;45.00;;;25.43;;
55222;SDS011;41090;48.632;12.428;2022-12-18T03:15:20;44.67;;;25.93;;
55222;SDS011;41090;48.632;12.428;2022-12-18T03:17:51;42.53;;;26.37;;
55222;SDS011;41090;48.632;12.428;2022-12-18T03:20:19;43.77;;;26.37;;
55222;SDS011;41090;48.632;12.428;2022-12-18T03:22:45;44.70;;;26.73;;
55222;SDS011;41090;48.632;12.428;2022-12-18T03:25:13;50.33;;;29.13;;
55222;SDS011;41090;48.632;12.428;2022-12-18T03:27:39;46.07;;;27.77;;
55222;SDS011;41090;48.632;12.428;2022-12-18T03:30:10;48.80;;;29.30;;
55222;SDS011;41090;48.632;12.428;2022-12-18T03:35:23;47.93;;;29.27;;
55222;SDS011;41090;48.632;12.428;2022-12-18T03:37:49;51.33;;;29.93;;
55222;SDS011;41090;48.632;12.428;2022-12-18T03:40:21;49.70;;;28.30;;
55222;SDS011;41090;48.632;12.428;2022-12-18T03:42:51;52.60;;;29.17;;
55222;SDS011;41090;48.632;12.428;2022-12-18T03:45:22;50.63;;;29.33;;
55222;SDS011;41090;48.632;12.428;2022-12-18T03:50:27;49.23;;;28.47;;
55222;SDS011;41090;48.632;12.428;2022-12-18T03:55:35;51.27;;;29.43;;
55222;SDS011;41090;48.632;12.428;2022-12-18T04:00:29;50.23;;;29.43;;
55222;SDS011;41090;48.632;12.428;2022-12-18T04:02:56;46.40;;;29.17;;
55222;SDS011;41090;48.632;12.428;2022-12-18T04:05:22;46.90;;;26.97;;
55222;SDS011;41090;48.632;12.428;2022-12-18T04:07:49;44.13;;;26.63;;
55222;SDS011;41090;48.632;12.428;2022-12-18T04:10:15;44.17;;;27.07;;
55222;SDS011;41090;48.632;12.428;2022-12-18T04:12:41;43.43;;;26.70;;
55222;SDS011;41090;48.632;12.428;2022-12-18T04:15:07;43.43;;;26.50;;
55222;SDS011;41090;48.632;12.428;2022-12-18T04:17:32;45.40;;;27.57;;
55222;SDS011;41090;48.632;12.428;2022-12-18T04:19:57;43.83;;;27.77;;
55222;SDS011;41090;48.632;12.428;2022-12-18T04:22:22;42.23;;;26.80;;
55222;SDS011;41090;48.632;12.428;2022-12-18T04:24:48;45.63;;;26.67;;
55222;SDS011;41090;48.632;12.428;2022-12-18T04:27:13;41.23;;;25.70;;
55222;SDS011;41090;48.632;12.428;2022-12-18T04:29:38;44.57;;;27.47;;
55222;SDS011;41090;48.632;12.428;2022-12-18T04:32:04;43.10;;;25.93;;
55222;SDS011;41090;48.632;12.428;2022-12-18T04:34:29;42.80;;;25.30;;
55222;SDS011;41090;48.632;12.428;2022-12-18T04:36:55;44.80;;;27.23;;
55222;SDS011;41090;48.632;12.428;2022-12-18T04:39:20;49.07;;;28.50;;
55222;SDS011;41090;48.632;12.428;2022-12-18T04:41:46;51.57;;;29.10;;
55222;SDS011;41090;48.632;12.428;2022-12-18T04:44:11;49.17;;;27.90;;
55222;SDS011;41090;48.632;12.428;2022-12-18T04:46:36;47.10;;;28.07;;
55222;SDS011;41090;48.632;12.428;2022-12-18T04:49:01;46.37;;;27.53;;
55222;SDS011;41090;48.632;12.428;2022-12-18T04:51:38;46.50;;;28.03;;
55222;SDS011;41090;48.632;12.428;2022-12-18T04:54:03;47.60;;;28.00;;
55222;SDS011;41090;48.632;12.428;2022-12-18T04:56:30;46.57;;;27.33;;
55222;SDS011;41090;48.632;12.428;2022-12-18T04:58:55;43.70;;;27.10;;
55222;SDS011;41090;48.632;12.428;2022-12-18T05:01:20;47.10;;;27.30;;
55222;SDS011;41090;48.632;12.428;2022-12-18T05:03:46;44.93;;;25.63;;
55222;SDS011;41090;48.632;12.428;2022-12-18T05:06:11;49.97;;;29.00;;
55222;SDS011;41090;48.632;12.428;2022-12-18T05:08:36;45.53;;;27.70;;
55222;SDS011;41090;48.632;12.428;2022-12-18T05:11:02;45.83;;;27.77;;
55222;SDS011;41090;48.632;12.428;2022-12-18T05:13:28;53.23;;;30.37;;
55222;SDS011;41090;48.632;12.428;2022-12-18T05:15:54;46.43;;;27.47;;
55222;SDS011;41090;48.632;12.428;2022-12-18T05:18:19;42.37;;;25.17;;
55222;SDS011;41090;48.632;12.428;2022-12-18T05:20:44;45.27;;;25.27;;
55222;SDS011;41090;48.632;12.428;2022-12-18T05:23:09;44.17;;;25.00;;
55222;SDS011;41090;48.632;12.428;2022-12-18T05:25:35;43.57;;;25.53;;
55222;SDS011;41090;48.632;12.428;2022-12-18T05:28:00;45.83;;;26.73;;
55222;SDS011;41090;48.632;12.428;2022-12-18T05:30:25;48.10;;;28.30;;
55222;SDS011;41090;48.632;12.428;2022-12-18T05:32:50;57.93;;;29.17;;
55222;SDS011;41090;48.632;12.428;2022-12-18T05:35:24;52.53;;;29.40;;
55222;SDS011;41090;48.632;12.428;2022-12-18T05:37:49;47.93;;;27.37;;
55222;SDS011;41090;48.632;12.428;2022-12-18T05:40:15;48.47;;;27.77;;
55222;SDS011;41090;48.632;12.428;2022-12-18T05:42:40;47.43;;;27.30;;
55222;SDS011;41090;48.632;12.428;2022-12-18T05:45:05;44.57;;;26.33;;
55222;SDS011;41090;48.632;12.428;2022-12-18T05:47:31;46.17;;;26.40;;
55222;SDS011;41090;48.632;12.428;2022-12-18T05:49:56;44.40;;;25.53;;
55222;SDS011;41090;48.632;12.428;2022-12-18T05:52:21;45.60;;;26.20;;
55222;SDS011;41090;48.632;12.428;2022-12-18T05:54:46;45.93;;;25.00;;
55222;SDS011;41090;48.632;12.428;2022-12-18T05:57:12;44.20;;;26.13;;
55222;SDS011;41090;48.632;12.428;2022-12-18T05:59:37;46.87;;;26.83;;
55222;SDS011;41090;48.632;12.428;2022-12-18T06:02:03;46.67;;;26.47;;
55222;SDS011;41090;48.632;12.428;2022-12-18T06:04:30;44.53;;;26.43;;
55222;SDS011;41090;48.632;12.428;2022-12-18T06:06:55;45.50;;;27.43;;
55222;SDS011;41090;48.632;12.428;2022-12-18T06:09:21;49.90;;;28.10;;
55222;SDS011;41090;48.632;12.428;2022-12-18T06:11:46;47.27;;;27.73;;
55222;SDS011;41090;48.632;12.428;2022-12-18T06:14:11;48.30;;;28.73;;
55222;SDS011;41090;48.632;12.428;2022-12-18T06:16:36;51.13;;;28.77;;
55222;SDS011;41090;48.632;12.428;2022-12-18T06:21:34;52.03;;;31.07;;
55222;SDS011;41090;48.632;12.428;2022-12-18T06:23:59;54.97;;;30.50;;
55222;SDS011;41090;48.632;12.428;2022-12-18T06:26:24;50.07;;;28.67;;
55222;SDS011;41090;48.632;12.428;2022-12-18T06:28:50;52.13;;;29.50;;
55222;SDS011;41090;48.632;12.428;2022-12-18T06:31:15;54.07;;;29.57;;
55222;SDS011;41090;48.632;12.428;2022-12-18T06:33:40;52.93;;;28.90;;
55222;SDS011;41090;48.632;12.428;2022-12-18T06:36:10;51.27;;;28.30;;
55222;SDS011;41090;48.632;12.428;2022-12-18T06:38:36;51.20;;;29.40;;
55222;SDS011;41090;48.632;12.428;2022-12-18T06:41:06;50.47;;;28.87;;
55222;SDS011;41090;48.632;12.428;2022-12-18T06:43:31;53.17;;;29.37;;
55222;SDS011;41090;48.632;12.428;2022-12-18T06:45:59;49.50;;;30.27;;
55222;SDS011;41090;48.632;12.428;2022-12-18T06:48:25;51.93;;;28.17;;
55222;SDS011;41090;48.632;12.428;2022-12-18T06:50:50;52.90;;;29.03;;
55222;SDS011;41090;48.632;12.428;2022-12-18T06:53:15;49.13;;;28.83;;
55222;SDS011;41090;48.632;12.428;2022-12-18T06:55:40;53.37;;;29.37;;
55222;SDS011;41090;48.632;12.428;2022-12-18T06:58:06;47.57;;;29.03;;
55222;SDS011;41090;48.632;12.428;2022-12-18T07:00:31;51.17;;;28.07;;
55222;SDS011;41090;48.632;12.428;2022-12-18T07:02:56;49.23;;;26.47;;
55222;SDS011;41090;48.632;12.428;2022-12-18T07:05:22;48.40;;;27.63;;
55222;SDS011;41090;48.632;12.428;2022-12-18T07:07:47;44.20;;;25.10;;
55222;SDS011;41090;48.632;12.428;2022-12-18T07:10:14;42.70;;;24.87;;
55222;SDS011;41090;48.632;12.428;2022-12-18T07:12:39;38.83;;;22.07;;
55222;SDS011;41090;48.632;12.428;2022-12-18T07:15:04;34.13;;;20.63;;
55222;SDS011;41090;48.632;12.428;2022-12-18T07:17:34;38.30;;;21.30;;
55222;SDS011;41090;48.632;12.428;2022-12-18T07:22:38;44.07;;;23.70;;
55222;SDS011;41090;48.632;12.428;2022-12-18T07:27:44;42.03;;;24.27;;
55222;SDS011;41090;48.632;12.428;2022-12-18T07:30:09;43.00;;;23.17;;
55222;SDS011;41090;48.632;12.428;2022-12-18T07:32:39;39.00;;;23.33;;
55222;SDS011;41090;48.632;12.428;2022-12-18T07:35:04;40.20;;;23.23;;
55222;SDS011;41090;48.632;12.428;2022-12-18T07:37:31;40.80;;;22.27;;
55222;SDS011;41090;48.632;12.428;2022-12-18T07:39:57;41.17;;;22.50;;
55222;SDS011;41090;48.632;12.428;2022-12-18T07:42:22;41.60;;;23.80;;
55222;SDS011;41090;48.632;12.428;2022-12-18T07:44:56;43.37;;;23.93;;
55222;SDS011;41090;48.632;12.428;2022-12-18T07:47:22;42.70;;;24.43;;
55222;SDS011;41090;48.632;12.428;2022-12-18T07:49:58;41.63;;;23.50;;
55222;SDS011;41090;48.632;12.428;2022-12-18T07:52:23;40.53;;;23.07;;
55222;SDS011;41090;48.632;12.428;2022-12-18T07:57:36;39.37;;;22.67;;
55222;SDS011;41090;48.632;12.428;2022-12-18T08:00:02;39.33;;;23.33;;
55222;SDS011;41090;48.632;12.428;2022-12-18T08:02:30;38.63;;;22.93;;
55222;SDS011;41090;48.632;12.428;2022-12-18T08:04:55;34.37;;;21.70;;
55222;SDS011;41090;48.632;12.428;2022-12-18T08:07:20;32.00;;;20.17;;
55222;SDS011;41090;48.632;12.428;2022-12-18T08:09:46;34.03;;;20.73;;
55222;SDS011;41090;48.632;12.428;2022-12-18T08:12:11;34.37;;;19.90;;
55222;SDS011;41090;48.632;12.428;2022-12-18T08:14:41;36.13;;;19.83;;
55222;SDS011;41090;48.632;12.428;2022-12-18T08:17:06;36.90;;;21.97;;
55222;SDS011;41090;48.632;12.428;2022-12-18T08:19:32;38.97;;;21.63;;
55222;SDS011;41090;48.632;12.428;2022-12-18T08:21:57;35.07;;;20.97;;
55222;SDS011;41090;48.632;12.428;2022-12-18T08:24:22;31.27;;;19.80;;
55222;SDS011;41090;48.632;12.428;2022-12-18T08:26:48;31.50;;;19.30;;
55222;SDS011;41090;48.632;12.428;2022-12-18T08:29:13;31.53;;;18.97;;
55222;SDS011;41090;48.632;12.428;2022-12-18T08:31:38;34.80;;;21.43;;
55222;SDS011;41090;48.632;12.428;2022-12-18T08:34:03;34.77;;;22.10;;
55222;SDS011;41090;48.632;12.428;2022-12-18T08:36:29;34.87;;;22.13;;
55222;SDS011;41090;48.632;12.428;2022-12-18T08:38:54;36.80;;;22.07;;
55222;SDS011;41090;48.632;12.428;2022-12-18T08:41:19;32.80;;;20.47;;
55222;SDS011;41090;48.632;12.428;2022-12-18T08:43:45;31.17;;;19.57;;
55222;SDS011;41090;48.632;12.428;2022-12-18T08:46:33;29.50;;;18.30;;
55222;SDS011;41090;48.632;12.428;2022-12-18T08:48:59;30.87;;;19.67;;
55222;SDS011;41090;48.632;12.428;2022-12-18T08:51:24;33.70;;;20.00;;
55222;SDS011;41090;48.632;12.428;2022-12-18T08:53:50;31.23;;;20.30;;
55222;SDS011;41090;48.632;12.428;2022-12-18T08:56:17;32.23;;;20.07;;
55222;SDS011;41090;48.632;12.428;2022-12-18T09:01:12;37.57;;;22.53;;
55222;SDS011;41090;48.632;12.428;2022-12-18T09:03:39;34.77;;;21.70;;
55222;SDS011;41090;48.632;12.428;2022-12-18T09:06:05;36.70;;;20.93;;
55222;SDS011;41090;48.632;12.428;2022-12-18T09:08:30;34.00;;;20.77;;
55222;SDS011;41090;48.632;12.428;2022-12-18T09:10:55;35.53;;;21.07;;
55222;SDS011;41090;48.632;12.428;2022-12-18T09:13:21;31.83;;;19.67;;
55222;SDS011;41090;48.632;12.428;2022-12-18T09:15:48;32.00;;;20.03;;
55222;SDS011;41090;48.632;12.428;2022-12-18T09:18:25;28.30;;;19.33;;
55222;SDS011;41090;48.632;12.428;2022-12-18T09:20:50;32.10;;;19.47;;
55222;SDS011;41090;48.632;12.428;2022-12-18T09:23:23;36.00;;;20.93;;
55222;SDS011;41090;48.632;12.428;2022-12-18T09:25:48;31.20;;;19.90;;
55222;SDS011;41090;48.632;12.428;2022-12-18T09:28:14;31.30;;;20.27;;
55222;SDS011;41090;48.632;12.428;2022-12-18T09:33:20;33.27;;;21.00;;
55222;SDS011;41090;48.632;12.428;2022-12-18T09:35:46;32.47;;;20.07;;
55222;SDS011;41090;48.632;12.428;2022-12-18T09:38:12;33.93;;;21.87;;
55222;SDS011;41090;48.632;12.428;2022-12-18T09:40:46;32.63;;;20.73;;
55222;SDS011;41090;48.632;12.428;2022-12-18T09:43:17;33.73;;;21.03;;
55222;SDS011;41090;48.632;12.428;2022-12-18T09:45:47;31.07;;;21.20;;
55222;SDS011;41090;48.632;12.428;2022-12-18T09:48:15;37.30;;;21.87;;
55222;SDS011;41090;48.632;12.428;2022-12-18T09:50:45;33.50;;;21.43;;
55222;SDS011;41090;48.632;12.428;2022-12-18T09:53:19;33.50;;;21.23;;
55222;SDS011;41090;48.632;12.428;2022-12-18T09:55:45;35.63;;;22.13;;
55222;SDS011;41090;48.632;12.428;2022-12-18T09:58:15;34.20;;;21.40;;
55222;SDS011;41090;48.632;12.428;2022-12-18T10:00:41;38.03;;;23.30;;
55222;SDS011;41090;48.632;12.428;2022-12-18T10:03:10;33.40;;;21.63;;
55222;SDS011;41090;48.632;12.428;2022-12-18T10:10:46;36.17;;;20.53;;
55222;SDS011;41090;48.632;12.428;2022-12-18T10:20:55;32.60;;;21.33;;
55222;SDS011;41090;48.632;12.428;2022-12-18T10:23:25;34.17;;;22.17;;
55222;SDS011;41090;48.632;12.428;2022-12-18T10:26:04;36.33;;;24.03;;
55222;SDS011;41090;48.632;12.428;2022-12-18T10:28:41;33.63;;;21.77;;
55222;SDS011;41090;48.632;12.428;2022-12-18T10:31:18;41.67;;;24.87;;
55222;SDS011;41090;48.632;12.428;2022-12-18T10:33:43;32.40;;;21.17;;
55222;SDS011;41090;48.632;12.428;2022-12-18T10:36:16;32.33;;;21.50;;
55222;SDS011;41090;48.632;12.428;2022-12-18T10:38:42;34.63;;;22.20;;
55222;SDS011;41090;48.632;12.428;2022-12-18T10:43:42;38.10;;;21.97;;
55222;SDS011;41090;48.632;12.428;2022-12-18T10:48:33;36.33;;;23.30;;
55222;SDS011;41090;48.632;12.428;2022-12-18T10:53:31;31.20;;;20.70;;
55222;SDS011;41090;48.632;12.428;2022-12-18T10:55:58;31.50;;;21.13;;
55222;SDS011;41090;48.632;12.428;2022-12-18T10:58:42;30.60;;;19.53;;
55222;SDS011;41090;48.632;12.428;2022-12-18T11:01:17;31.07;;;20.43;;
55222;SDS011;41090;48.632;12.428;2022-12-18T11:06:19;29.07;;;18.30;;
55222;SDS011;41090;48.632;12.428;2022-12-18T11:09:34;25.53;;;17.83;;
55222;SDS011;41090;48.632;12.428;2022-12-18T11:11:35;27.80;;;18.03;;
55222;SDS011;41090;48.632;12.428;2022-12-18T11:14:02;27.37;;;18.33;;
55222;SDS011;41090;48.632;12.428;2022-12-18T11:16:29;24.23;;;18.00;;
55222;SDS011;41090;48.632;12.428;2022-12-18T11:19:13;23.53;;;17.10;;
55222;SDS011;41090;48.632;12.428;2022-12-18T11:21:40;21.97;;;17.37;;
55222;SDS011;41090;48.632;12.428;2022-12-18T11:24:07;23.13;;;17.53;;
55222;SDS011;41090;48.632;12.428;2022-12-18T11:26:40;24.37;;;18.10;;
55222;SDS011;41090;48.632;12.428;2022-12-18T11:29:09;21.87;;;17.47;;
55222;SDS011;41090;48.632;12.428;2022-12-18T11:31:42;22.87;;;18.53;;
55222;SDS011;41090;48.632;12.428;2022-12-18T11:34:17;22.20;;;17.77;;
55222;SDS011;41090;48.632;12.428;2022-12-18T11:36:46;21.57;;;16.23;;
55222;SDS011;41090;48.632;12.428;2022-12-18T11:39:17;24.30;;;18.13;;
55222;SDS011;41090;48.632;12.428;2022-12-18T11:42:08;25.63;;;19.87;;
55222;SDS011;41090;48.632;12.428;2022-12-18T11:50:21;30.80;;;22.33;;
55222;SDS011;41090;48.632;12.428;2022-12-18T11:52:48;37.97;;;27.73;;
55222;SDS011;41090;48.632;12.428;2022-12-18T11:55:27;32.43;;;23.03;;
55222;SDS011;41090;48.632;12.428;2022-12-18T12:00:49;27.60;;;20.10;;
55222;SDS011;41090;48.632;12.428;2022-12-18T12:03:34;26.83;;;20.00;;
55222;SDS011;41090;48.632;12.428;2022-12-18T12:11:29;24.63;;;19.00;;
55222;SDS011;41090;48.632;12.428;2022-12-18T12:16:37;24.63;;;18.83;;
55222;SDS011;41090;48.632;12.428;2022-12-18T12:19:32;26.00;;;19.87;;
55222;SDS011;41090;48.632;12.428;2022-12-18T12:24:42;26.10;;;20.37;;
55222;SDS011;41090;48.632;12.428;2022-12-18T12:27:34;25.73;;;19.77;;
55222;SDS011;41090;48.632;12.428;2022-12-18T12:30:00;22.43;;;17.93;;
55222;SDS011;41090;48.632;12.428;2022-12-18T12:32:41;24.37;;;19.37;;
55222;SDS011;41090;48.632;12.428;2022-12-18T12:35:12;25.10;;;20.47;;
55222;SDS011;41090;48.632;12.428;2022-12-18T12:37:47;24.00;;;19.40;;
55222;SDS011;41090;48.632;12.428;2022-12-18T12:40:15;48.07;;;40.10;;
55222;SDS011;41090;48.632;12.428;2022-12-18T12:42:46;28.33;;;20.60;;
55222;SDS011;41090;48.632;12.428;2022-12-18T12:50:47;26.83;;;19.93;;
55222;SDS011;41090;48.632;12.428;2022-12-18T12:53:16;25.27;;;21.00;;
55222;SDS011;41090;48.632;12.428;2022-12-18T12:55:44;27.73;;;21.77;;
55222;SDS011;41090;48.632;12.428;2022-12-18T13:03:50;27.03;;;20.83;;
55222;SDS011;41090;48.632;12.428;2022-12-18T13:09:13;32.90;;;24.20;;
55222;SDS011;41090;48.632;12.428;2022-12-18T13:11:39;28.27;;;21.13;;
55222;SDS011;41090;48.632;12.428;2022-12-18T13:14:39;27.37;;;20.17;;
55222;SDS011;41090;48.632;12.428;2022-12-18T13:17:14;27.03;;;19.00;;
55222;SDS011;41090;48.632;12.428;2022-12-18T13:25:30;25.77;;;18.67;;
55222;SDS011;41090;48.632;12.428;2022-12-18T13:27:57;29.03;;;19.47;;
55222;SDS011;41090;48.632;12.428;2022-12-18T13:35:40;23.47;;;17.77;;
55222;SDS011;41090;48.632;12.428;2022-12-18T13:41:00;24.80;;;17.87;;
55222;SDS011;41090;48.632;12.428;2022-12-18T13:49:02;24.43;;;17.37;;
55222;SDS011;41090;48.632;12.428;2022-12-18T13:51:28;25.40;;;17.77;;
55222;SDS011;41090;48.632;12.428;2022-12-18T13:53:59;23.93;;;17.67;;
55222;SDS011;41090;48.632;12.428;2022-12-18T13:56:26;25.30;;;17.97;;
55222;SDS011;41090;48.632;12.428;2022-12-18T14:01:30;23.47;;;16.63;;
55222;SDS011;41090;48.632;12.428;2022-12-18T14:17:55;31.23;;;20.40;;
55222;SDS011;41090;48.632;12.428;2022-12-18T14:20:20;29.00;;;20.53;;
55222;SDS011;41090;48.632;12.428;2022-12-18T14:22:46;32.03;;;21.67;;
55222;SDS011;41090;48.632;12.428;2022-12-18T14:27:37;29.63;;;21.60;;
55222;SDS011;41090;48.632;12.428;2022-12-18T14:30:18;32.60;;;22.07;;
55222;SDS011;41090;48.632;12.428;2022-12-18T14:35:54;30.97;;;21.27;;
55222;SDS011;41090;48.632;12.428;2022-12-18T14:38:22;30.80;;;20.00;;
55222;SDS011;41090;48.632;12.428;2022-12-18T14:40:51;29.53;;;19.60;;
55222;SDS011;41090;48.632;12.428;2022-12-18T14:43:16;30.63;;;20.00;;
55222;SDS011;41090;48.632;12.428;2022-12-18T14:45:47;30.37;;;19.90;;
55222;SDS011;41090;48.632;12.428;2022-12-18T14:48:17;28.80;;;19.23;;
55222;SDS011;41090;48.632;12.428;2022-12-18T14:50:44;27.47;;;19.83;;
55222;SDS011;41090;48.632;12.428;2022-12-18T14:53:23;30.90;;;19.70;;
55222;SDS011;41090;48.632;12.428;2022-12-18T14:55:52;28.97;;;19.93;;
55222;SDS011;41090;48.632;12.428;2022-12-18T14:58:18;30.87;;;21.00;;
55222;SDS011;41090;48.632;12.428;2022-12-18T15:00:46;33.30;;;23.53;;
55222;SDS011;41090;48.632;12.428;2022-12-18T15:03:20;33.97;;;24.80;;
55222;SDS011;41090;48.632;12.428;2022-12-18T15:05:46;32.83;;;22.10;;
55222;SDS011;41090;48.632;12.428;2022-12-18T15:11:29;33.17;;;22.67;;
55222;SDS011;41090;48.632;12.428;2022-12-18T15:13:57;29.83;;;20.47;;
55222;SDS011;41090;48.632;12.428;2022-12-18T15:16:23;29.67;;;21.40;;
55222;SDS011;41090;48.632;12.428;2022-12-18T15:18:50;32.73;;;22.93;;
55222;SDS011;41090;48.632;12.428;2022-12-18T15:21:19;36.67;;;24.40;;
55222;SDS011;41090;48.632;12.428;2022-12-18T15:26:10;31.23;;;19.80;;
55222;SDS011;41090;48.632;12.428;2022-12-18T15:31:17;31.37;;;22.03;;
55222;SDS011;41090;48.632;12.428;2022-12-18T15:34:30;30.93;;;21.50;;
55222;SDS011;41090;48.632;12.428;2022-12-18T15:36:30;34.77;;;22.60;;
55222;SDS011;41090;48.632;12.428;2022-12-18T15:41:25;32.40;;;22.77;;
55222;SDS011;41090;48.632;12.428;2022-12-18T15:43:52;35.90;;;24.70;;
55222;SDS011;41090;48.632;12.428;2022-12-18T15:48:46;36.70;;;24.77;;
55222;SDS011;41090;48.632;12.428;2022-12-18T15:51:19;34.87;;;24.67;;
55222;SDS011;41090;48.632;12.428;2022-12-18T15:53:49;35.77;;;24.23;;
55222;SDS011;41090;48.632;12.428;2022-12-18T15:56:16;32.97;;;24.40;;
55222;SDS011;41090;48.632;12.428;2022-12-18T15:59:11;45.83;;;32.23;;
55222;SDS011;41090;48.632;12.428;2022-12-18T16:01:37;42.93;;;30.53;;
55222;SDS011;41090;48.632;12.428;2022-12-18T16:04:03;45.40;;;31.60;;
55222;SDS011;41090;48.632;12.428;2022-12-18T16:06:28;44.03;;;32.60;;
55222;SDS011;41090;48.632;12.428;2022-12-18T16:08:53;47.90;;;34.50;;
55222;SDS011;41090;48.632;12.428;2022-12-18T16:11:23;46.23;;;32.17;;
55222;SDS011;41090;48.632;12.428;2022-12-18T16:14:24;41.93;;;31.20;;
55222;SDS011;41090;48.632;12.428;2022-12-18T16:16:51;45.43;;;33.80;;
55222;SDS011;41090;48.632;12.428;2022-12-18T16:19:22;45.47;;;33.73;;
55222;SDS011;41090;48.632;12.428;2022-12-18T16:21:48;43.73;;;32.20;;
55222;SDS011;41090;48.632;12.428;2022-12-18T16:24:17;46.13;;;31.63;;
55222;SDS011;41090;48.632;12.428;2022-12-18T16:26:43;40.57;;;30.90;;
55222;SDS011;41090;48.632;12.428;2022-12-18T16:29:09;46.07;;;33.03;;
55222;SDS011;41090;48.632;12.428;2022-12-18T16:31:42;52.17;;;36.13;;
55222;SDS011;41090;48.632;12.428;2022-12-18T16:34:19;56.17;;;39.37;;
55222;SDS011;41090;48.632;12.428;2022-12-18T16:36:47;49.70;;;36.87;;
55222;SDS011;41090;48.632;12.428;2022-12-18T16:39:12;47.57;;;32.63;;
55222;SDS011;41090;48.632;12.428;2022-12-18T16:41:37;45.37;;;33.27;;
55222;SDS011;41090;48.632;12.428;2022-12-18T16:44:03;45.80;;;32.17;;
55222;SDS011;41090;48.632;12.428;2022-12-18T16:46:36;54.87;;;35.90;;
55222;SDS011;41090;48.632;12.428;2022-12-18T16:54:04;51.70;;;34.50;;
55222;SDS011;41090;48.632;12.428;2022-12-18T16:56:30;46.43;;;31.60;;
55222;SDS011;41090;48.632;12.428;2022-12-18T16:58:56;45.33;;;29.83;;
55222;SDS011;41090;48.632;12.428;2022-12-18T17:01:31;41.10;;;28.77;;
55222;SDS011;41090;48.632;12.428;2022-12-18T17:06:22;44.57;;;30.40;;